createdAt,value
2017-06-12T00:00:09.359Z,0
2017-06-12T00:00:49.815Z,0
2017-06-12T00:01:30.275Z,0
2017-06-12T00:02:10.733Z,0
2017-06-12T00:02:51.191Z,0
2017-06-12T00:03:31.651Z,0
2017-06-12T00:04:12.102Z,0
2017-06-12T00:04:52.565Z,0
2017-06-12T00:05:33.024Z,0
2017-06-12T00:06:13.481Z,0
2017-06-12T00:06:53.930Z,0
2017-06-12T00:07:34.384Z,0
2017-06-12T00:08:14.826Z,0
2017-06-12T00:08:55.279Z,0
2017-06-12T00:09:35.747Z,0
2017-06-12T00:10:16.201Z,0
2017-06-12T00:10:56.654Z,0
2017-06-12T00:11:37.120Z,0
2017-06-12T00:12:17.569Z,0
2017-06-12T00:12:58.025Z,0
2017-06-12T00:13:38.476Z,0
2017-06-12T00:14:18.927Z,0
2017-06-12T00:14:59.376Z,0
2017-06-12T00:15:39.835Z,0
2017-06-12T00:16:20.294Z,0
2017-06-12T00:17:00.752Z,0
2017-06-12T00:17:41.212Z,0
2017-06-12T00:18:21.670Z,0
2017-06-12T00:19:02.121Z,0
2017-06-12T00:19:42.578Z,0
2017-06-12T00:20:23.036Z,0
2017-06-12T00:21:03.497Z,0
2017-06-12T00:21:43.953Z,0
2017-06-12T00:22:24.404Z,0
2017-06-12T00:23:04.856Z,0
2017-06-12T00:23:45.308Z,0
2017-06-12T00:24:25.757Z,0
2017-06-12T00:25:06.214Z,0
2017-06-12T00:25:46.660Z,0
2017-06-12T00:26:27.118Z,0
2017-06-12T00:27:07.574Z,0
2017-06-12T00:27:48.031Z,0
2017-06-12T00:28:28.485Z,0
2017-06-12T00:29:08.946Z,0
2017-06-12T00:29:49.406Z,0
2017-06-12T00:30:29.861Z,0
2017-06-12T00:31:10.339Z,0
2017-06-12T00:31:50.802Z,0
2017-06-12T00:32:31.254Z,0
2017-06-12T00:33:11.713Z,0
2017-06-12T00:33:52.175Z,0
2017-06-12T00:34:32.628Z,0
2017-06-12T00:35:13.089Z,0
2017-06-12T00:35:53.543Z,0
2017-06-12T00:36:33.990Z,0
2017-06-12T00:37:14.450Z,0
2017-06-12T00:37:54.904Z,0
2017-06-12T00:38:35.360Z,0
2017-06-12T00:39:15.815Z,0
2017-06-12T00:39:56.273Z,0
2017-06-12T00:40:36.734Z,0
2017-06-12T00:41:17.200Z,0
2017-06-12T00:41:57.655Z,0
2017-06-12T00:42:38.122Z,0
2017-06-12T00:43:18.586Z,0
2017-06-12T00:43:59.039Z,0
2017-06-12T00:44:39.493Z,0
2017-06-12T00:45:19.955Z,0
2017-06-12T00:46:00.403Z,0
2017-06-12T00:46:40.857Z,0
2017-06-12T00:47:21.325Z,0
2017-06-12T00:48:01.781Z,0
2017-06-12T00:48:42.235Z,0
2017-06-12T00:49:22.704Z,0
2017-06-12T00:50:03.164Z,0
2017-06-12T00:50:43.619Z,0
2017-06-12T00:53:11.790Z,0
2017-06-12T00:53:52.249Z,0
2017-06-12T00:54:32.703Z,0
2017-06-12T00:55:13.161Z,0
2017-06-12T00:55:53.616Z,0
2017-06-12T00:56:34.067Z,0
2017-06-12T00:57:14.521Z,0
2017-06-12T00:57:54.984Z,0
2017-06-12T00:58:35.437Z,0
2017-06-12T00:59:15.897Z,0
2017-06-12T00:59:56.360Z,0
2017-06-12T01:00:36.820Z,0
2017-06-12T01:01:17.280Z,0
2017-06-12T01:01:57.736Z,0
2017-06-12T01:02:38.193Z,0
2017-06-12T01:03:18.646Z,0
2017-06-12T01:03:59.104Z,0
2017-06-12T01:04:39.558Z,0
2017-06-12T01:05:20.029Z,0
2017-06-12T01:06:00.488Z,0
2017-06-12T01:06:40.947Z,0
2017-06-12T01:07:21.396Z,0
2017-06-12T01:08:01.853Z,0
2017-06-12T01:08:42.313Z,0
2017-06-12T01:09:22.773Z,0
2017-06-12T01:10:03.233Z,0
2017-06-12T01:10:43.688Z,0
2017-06-12T01:11:24.140Z,0
2017-06-12T01:12:04.604Z,0
2017-06-12T01:12:45.062Z,0
2017-06-12T01:13:25.541Z,0
2017-06-12T01:14:05.999Z,0
2017-06-12T01:14:46.458Z,0
2017-06-12T01:15:26.916Z,0
2017-06-12T01:16:07.370Z,0
2017-06-12T01:16:47.825Z,0
2017-06-12T01:17:28.278Z,0
2017-06-12T01:18:08.748Z,0
2017-06-12T01:18:49.208Z,0
2017-06-12T01:19:29.664Z,0
2017-06-12T01:20:10.121Z,0
2017-06-12T01:20:50.582Z,0
2017-06-12T01:21:31.045Z,0
2017-06-12T01:22:11.491Z,0
2017-06-12T01:22:51.956Z,0
2017-06-12T01:23:32.410Z,0
2017-06-12T01:24:12.876Z,0
2017-06-12T01:24:53.335Z,0
2017-06-12T01:25:33.803Z,0
2017-06-12T01:26:14.257Z,0
2017-06-12T01:26:54.722Z,0
2017-06-12T01:27:35.180Z,0
2017-06-12T01:28:15.638Z,0
2017-06-12T01:28:56.103Z,0
2017-06-12T01:29:36.556Z,0
2017-06-12T01:30:17.021Z,0
2017-06-12T01:30:57.494Z,0
2017-06-12T01:31:37.940Z,0
2017-06-12T01:32:18.399Z,0
2017-06-12T01:32:58.853Z,0
2017-06-12T01:33:39.316Z,0
2017-06-12T01:34:19.774Z,0
2017-06-12T01:35:00.237Z,0
2017-06-12T01:35:40.690Z,0
2017-06-12T01:36:21.153Z,0
2017-06-12T01:37:01.616Z,0
2017-06-12T01:37:42.077Z,0
2017-06-12T01:38:22.533Z,0
2017-06-12T01:39:02.994Z,0
2017-06-12T01:39:43.464Z,0
2017-06-12T01:40:23.926Z,0
2017-06-12T01:41:04.375Z,0
2017-06-12T01:41:44.841Z,0
2017-06-12T01:42:25.297Z,0
2017-06-12T01:43:05.756Z,0
2017-06-12T01:43:46.215Z,0
2017-06-12T01:44:26.678Z,0
2017-06-12T01:45:07.135Z,0
2017-06-12T01:45:47.604Z,0
2017-06-12T01:46:28.072Z,0
2017-06-12T01:47:08.534Z,0
2017-06-12T01:47:48.987Z,0
2017-06-12T01:48:29.446Z,0
2017-06-12T01:49:09.904Z,0
2017-06-12T01:49:50.382Z,0
2017-06-12T01:50:30.819Z,0
2017-06-12T01:51:11.279Z,0
2017-06-12T01:51:51.740Z,0
2017-06-12T01:52:32.194Z,0
2017-06-12T01:53:12.653Z,0
2017-06-12T01:53:53.113Z,0
2017-06-12T01:54:33.573Z,0
2017-06-12T01:55:14.035Z,0
2017-06-12T01:55:54.491Z,0
2017-06-12T01:56:34.939Z,0
2017-06-12T01:57:15.395Z,0
2017-06-12T01:57:55.852Z,0
2017-06-12T01:58:36.312Z,0
2017-06-12T01:59:16.773Z,0
2017-06-12T01:59:57.238Z,0
2017-06-12T02:00:37.700Z,0
2017-06-12T02:01:18.156Z,0
2017-06-12T02:01:58.613Z,0
2017-06-12T02:02:39.075Z,0
2017-06-12T02:03:19.532Z,0
2017-06-12T02:03:59.989Z,0
2017-06-12T02:04:40.449Z,0
2017-06-12T02:05:20.905Z,0
2017-06-12T02:06:01.361Z,0
2017-06-12T02:06:41.822Z,0
2017-06-12T02:07:22.290Z,0
2017-06-12T02:08:02.744Z,0
2017-06-12T02:08:43.197Z,0
2017-06-12T02:09:23.657Z,0
2017-06-12T02:10:04.124Z,0
2017-06-12T02:10:44.564Z,0
2017-06-12T02:11:25.024Z,0
2017-06-12T02:12:05.478Z,0
2017-06-12T02:12:45.942Z,0
2017-06-12T02:13:26.401Z,0
2017-06-12T02:14:06.861Z,0
2017-06-12T02:14:47.320Z,0
2017-06-12T02:15:27.773Z,0
2017-06-12T02:16:08.237Z,0
2017-06-12T02:16:48.692Z,0
2017-06-12T02:17:29.136Z,0
2017-06-12T02:18:09.591Z,0
2017-06-12T02:18:50.049Z,0
2017-06-12T02:19:30.509Z,0
2017-06-12T02:20:10.968Z,0
2017-06-12T02:20:51.421Z,0
2017-06-12T02:21:31.881Z,0
2017-06-12T02:22:12.330Z,0
2017-06-12T02:22:52.791Z,0
2017-06-12T02:23:33.256Z,0
2017-06-12T02:24:13.707Z,0
2017-06-12T02:24:54.166Z,0
2017-06-12T02:25:34.622Z,0
2017-06-12T02:26:15.108Z,0
2017-06-12T02:26:55.565Z,0
2017-06-12T02:27:36.024Z,0
2017-06-12T02:28:16.484Z,0
2017-06-12T02:28:56.942Z,0
2017-06-12T02:29:37.398Z,0
2017-06-12T02:30:17.863Z,0
2017-06-12T02:30:58.318Z,0
2017-06-12T02:31:38.772Z,0
2017-06-12T02:32:19.226Z,0
2017-06-12T02:32:59.688Z,0
2017-06-12T02:33:40.147Z,0
2017-06-12T02:34:20.604Z,0
2017-06-12T02:35:01.069Z,0
2017-06-12T02:35:41.529Z,0
2017-06-12T02:36:21.978Z,0
2017-06-12T02:37:02.439Z,0
2017-06-12T02:37:42.903Z,0
2017-06-12T02:38:23.365Z,0
2017-06-12T02:39:03.840Z,0
2017-06-12T02:39:44.297Z,0
2017-06-12T02:40:24.750Z,0
2017-06-12T02:41:05.216Z,0
2017-06-12T02:41:45.674Z,0
2017-06-12T02:42:26.140Z,0
2017-06-12T02:43:06.589Z,0
2017-06-12T02:43:47.070Z,0
2017-06-12T02:44:27.524Z,0
2017-06-12T02:45:07.980Z,0
2017-06-12T02:47:36.161Z,0
2017-06-12T02:48:16.615Z,0
2017-06-12T02:48:57.075Z,0
2017-06-12T02:49:37.528Z,0
2017-06-12T02:50:17.984Z,0
2017-06-12T02:50:58.447Z,0
2017-06-12T02:51:38.922Z,0
2017-06-12T02:52:19.379Z,0
2017-06-12T02:52:59.838Z,0
2017-06-12T02:53:40.292Z,0
2017-06-12T02:54:20.749Z,0
2017-06-12T02:55:01.211Z,0
2017-06-12T02:55:41.665Z,0
2017-06-12T02:56:22.123Z,0
2017-06-12T02:57:02.574Z,0
2017-06-12T02:57:43.031Z,0
2017-06-12T02:58:23.485Z,0
2017-06-12T02:59:03.951Z,0
2017-06-12T02:59:44.385Z,0
2017-06-12T03:00:24.843Z,0
2017-06-12T03:01:05.305Z,0
2017-06-12T03:01:45.763Z,0
2017-06-12T03:02:26.221Z,0
2017-06-12T03:03:06.678Z,0
2017-06-12T03:03:47.141Z,0
2017-06-12T03:04:27.599Z,0
2017-06-12T03:05:08.052Z,0
2017-06-12T03:05:48.515Z,0
2017-06-12T03:06:28.976Z,0
2017-06-12T03:07:09.434Z,0
2017-06-12T03:07:49.887Z,0
2017-06-12T03:08:30.349Z,0
2017-06-12T03:09:10.811Z,0
2017-06-12T03:09:51.262Z,0
2017-06-12T03:10:31.726Z,0
2017-06-12T03:11:12.184Z,0
2017-06-12T03:11:52.640Z,0
2017-06-12T03:12:33.099Z,0
2017-06-12T03:13:13.561Z,0
2017-06-12T03:13:54.018Z,0
2017-06-12T03:14:34.475Z,0
2017-06-12T03:15:14.934Z,0
2017-06-12T03:15:55.386Z,0
2017-06-12T03:16:35.846Z,0
2017-06-12T03:17:16.302Z,0
2017-06-12T03:17:56.760Z,0
2017-06-12T03:18:37.217Z,0
2017-06-12T03:19:17.676Z,0
2017-06-12T03:19:58.137Z,0
2017-06-12T03:20:38.597Z,0
2017-06-12T03:21:19.060Z,0
2017-06-12T03:21:59.528Z,0
2017-06-12T03:22:39.982Z,0
2017-06-12T03:23:20.438Z,0
2017-06-12T03:24:00.901Z,0
2017-06-12T03:24:41.362Z,0
2017-06-12T03:25:21.821Z,0
2017-06-12T03:26:02.276Z,0
2017-06-12T03:26:42.737Z,0
2017-06-12T03:27:23.189Z,0
2017-06-12T03:28:03.644Z,0
2017-06-12T03:28:44.106Z,0
2017-06-12T03:29:24.557Z,0
2017-06-12T03:30:05.012Z,0
2017-06-12T03:30:45.472Z,0
2017-06-12T03:31:25.935Z,0
2017-06-12T03:32:06.389Z,0
2017-06-12T03:32:46.842Z,0
2017-06-12T03:33:27.304Z,0
2017-06-12T03:34:07.756Z,0
2017-06-12T03:34:48.215Z,0
2017-06-12T03:35:28.674Z,0
2017-06-12T03:36:09.185Z,0
2017-06-12T03:36:49.645Z,0
2017-06-12T03:37:30.110Z,0
2017-06-12T03:38:10.559Z,0
2017-06-12T03:38:51.017Z,0
2017-06-12T03:39:31.475Z,0
2017-06-12T03:40:11.932Z,0
2017-06-12T03:40:52.389Z,0
2017-06-12T03:41:32.862Z,0
2017-06-12T03:42:13.318Z,0
2017-06-12T03:42:53.774Z,0
2017-06-12T03:43:34.232Z,0
2017-06-12T03:44:14.693Z,0
2017-06-12T03:44:55.145Z,0
2017-06-12T03:45:35.603Z,0
2017-06-12T03:46:16.067Z,0
2017-06-12T03:46:56.525Z,0
2017-06-12T03:47:36.984Z,0
2017-06-12T03:48:17.442Z,0
2017-06-12T03:48:57.901Z,0
2017-06-12T03:49:38.363Z,0
2017-06-12T03:50:18.818Z,0
2017-06-12T03:50:59.276Z,0
2017-06-12T03:51:39.731Z,0
2017-06-12T03:52:20.193Z,0
2017-06-12T03:53:00.652Z,0
2017-06-12T03:53:41.108Z,0
2017-06-12T03:54:21.564Z,0
2017-06-12T03:55:02.020Z,0
2017-06-12T03:55:42.478Z,0
2017-06-12T03:56:22.933Z,0
2017-06-12T03:57:03.393Z,0
2017-06-12T03:57:43.878Z,0
2017-06-12T03:58:24.357Z,0
2017-06-12T03:59:04.816Z,0
2017-06-12T03:59:45.295Z,0
2017-06-12T04:00:25.754Z,0
2017-06-12T04:01:06.214Z,0
2017-06-12T04:01:46.674Z,0
2017-06-12T04:02:27.127Z,0
2017-06-12T04:03:07.589Z,0
2017-06-12T04:03:48.047Z,0
2017-06-12T04:04:28.504Z,0
2017-06-12T04:05:08.960Z,0
2017-06-12T04:05:49.411Z,0
2017-06-12T04:06:29.871Z,0
2017-06-12T04:07:10.333Z,0
2017-06-12T04:09:38.744Z,0
2017-06-12T04:10:19.200Z,0
2017-06-12T04:10:59.653Z,0
2017-06-12T04:11:40.109Z,0
2017-06-12T04:12:20.566Z,0
2017-06-12T04:13:01.020Z,0
2017-06-12T04:13:41.470Z,0
2017-06-12T04:14:21.913Z,0
2017-06-12T04:15:02.376Z,0
2017-06-12T04:15:42.823Z,0
2017-06-12T04:16:23.279Z,0
2017-06-12T04:17:03.730Z,0
2017-06-12T04:17:44.189Z,0
2017-06-12T04:18:24.643Z,0
2017-06-12T04:19:05.099Z,0
2017-06-12T04:19:45.551Z,0
2017-06-12T04:20:26.008Z,0
2017-06-12T04:21:06.465Z,0
2017-06-12T04:21:46.924Z,0
2017-06-12T04:22:27.361Z,0
2017-06-12T04:23:07.822Z,0
2017-06-12T04:23:48.290Z,0
2017-06-12T04:24:28.723Z,0
2017-06-12T04:25:09.234Z,0
2017-06-12T04:25:49.701Z,0
2017-06-12T04:26:30.146Z,0
2017-06-12T04:27:10.602Z,0
2017-06-12T04:27:51.061Z,0
2017-06-12T04:28:31.520Z,0
2017-06-12T04:29:11.977Z,0
2017-06-12T04:29:52.437Z,0
2017-06-12T04:30:32.891Z,0
2017-06-12T04:31:13.346Z,0
2017-06-12T04:31:53.812Z,0
2017-06-12T04:32:34.270Z,0
2017-06-12T04:33:14.731Z,0
2017-06-12T04:33:55.189Z,0
2017-06-12T04:34:35.647Z,0
2017-06-12T04:35:16.107Z,5
2017-06-12T04:35:56.563Z,5
2017-06-12T04:36:37.017Z,5
2017-06-12T04:37:17.499Z,5
2017-06-12T04:37:57.964Z,5
2017-06-12T04:38:38.426Z,5
2017-06-12T04:39:18.952Z,5
2017-06-12T04:39:59.408Z,5
2017-06-12T04:40:39.866Z,5
2017-06-12T04:41:20.325Z,5
2017-06-12T04:42:00.779Z,5
2017-06-12T04:42:41.239Z,5
2017-06-12T04:43:21.695Z,5
2017-06-12T04:44:02.153Z,5
2017-06-12T04:44:42.604Z,5
2017-06-12T04:45:23.062Z,5
2017-06-12T04:46:03.520Z,5
2017-06-12T04:46:43.981Z,5
2017-06-12T04:47:24.439Z,5
2017-06-12T04:48:04.890Z,5
2017-06-12T04:48:45.347Z,5
2017-06-12T04:49:25.810Z,5
2017-06-12T04:50:06.259Z,5
2017-06-12T04:50:46.716Z,5
2017-06-12T04:51:27.171Z,5
2017-06-12T04:52:07.631Z,5
2017-06-12T04:52:48.099Z,5
2017-06-12T04:53:28.547Z,5
2017-06-12T04:54:09.028Z,5
2017-06-12T04:54:49.485Z,5
2017-06-12T04:55:29.955Z,5
2017-06-12T04:56:10.409Z,5
2017-06-12T04:56:50.903Z,5
2017-06-12T04:57:31.351Z,5
2017-06-12T04:59:44.412Z,5
2017-06-12T05:00:24.868Z,10
2017-06-12T05:01:05.321Z,10
2017-06-12T05:01:45.785Z,10
2017-06-12T05:02:26.245Z,10
2017-06-12T05:03:06.697Z,10
2017-06-12T05:03:47.156Z,10
2017-06-12T05:04:27.619Z,10
2017-06-12T05:05:08.075Z,10
2017-06-12T05:05:48.534Z,10
2017-06-12T05:06:28.991Z,10
2017-06-12T05:07:09.446Z,10
2017-06-12T05:07:49.906Z,10
2017-06-12T05:08:30.351Z,15
2017-06-12T05:09:10.809Z,15
2017-06-12T05:09:51.269Z,15
2017-06-12T05:10:31.723Z,10
2017-06-12T05:11:12.164Z,10
2017-06-12T05:11:52.624Z,15
2017-06-12T05:12:33.082Z,15
2017-06-12T05:13:13.535Z,15
2017-06-12T05:13:54.000Z,15
2017-06-12T05:14:34.929Z,15
2017-06-12T05:15:15.386Z,15
2017-06-12T05:15:55.831Z,15
2017-06-12T05:16:36.290Z,15
2017-06-12T05:17:16.749Z,15
2017-06-12T05:17:57.210Z,15
2017-06-12T05:18:37.665Z,15
2017-06-12T05:19:18.121Z,15
2017-06-12T05:19:58.579Z,15
2017-06-12T05:20:39.036Z,15
2017-06-12T05:21:19.496Z,15
2017-06-12T05:21:59.957Z,15
2017-06-12T05:22:40.416Z,15
2017-06-12T05:23:20.879Z,15
2017-06-12T05:24:01.337Z,15
2017-06-12T05:24:41.795Z,15
2017-06-12T05:25:22.249Z,20
2017-06-12T05:26:02.712Z,20
2017-06-12T05:26:43.171Z,20
2017-06-12T05:27:23.631Z,20
2017-06-12T05:28:04.176Z,20
2017-06-12T05:28:44.583Z,20
2017-06-12T05:29:25.045Z,20
2017-06-12T05:30:05.494Z,20
2017-06-12T05:30:45.953Z,20
2017-06-12T05:31:26.430Z,20
2017-06-12T05:32:06.870Z,20
2017-06-12T05:32:47.320Z,20
2017-06-12T05:33:27.784Z,20
2017-06-12T05:34:08.252Z,20
2017-06-12T05:34:48.704Z,20
2017-06-12T05:35:29.162Z,20
2017-06-12T05:36:09.619Z,20
2017-06-12T05:36:50.072Z,20
2017-06-12T05:37:30.526Z,20
2017-06-12T05:38:10.977Z,20
2017-06-12T05:38:51.438Z,20
2017-06-12T05:39:31.894Z,20
2017-06-12T05:40:12.350Z,25
2017-06-12T05:40:52.813Z,25
2017-06-12T05:41:33.264Z,25
2017-06-12T05:42:13.702Z,25
2017-06-12T05:42:54.160Z,20
2017-06-12T05:43:34.616Z,25
2017-06-12T05:44:15.076Z,20
2017-06-12T05:44:55.530Z,25
2017-06-12T05:45:35.987Z,25
2017-06-12T05:46:16.447Z,20
2017-06-12T05:46:56.906Z,20
2017-06-12T05:47:37.364Z,25
2017-06-12T05:48:17.825Z,20
2017-06-12T05:48:58.277Z,20
2017-06-12T05:49:38.734Z,20
2017-06-12T05:50:19.174Z,20
2017-06-12T05:50:59.632Z,15
2017-06-12T05:51:40.093Z,15
2017-06-12T05:52:20.550Z,15
2017-06-12T05:53:01.009Z,15
2017-06-12T05:53:41.468Z,15
2017-06-12T05:54:21.925Z,15
2017-06-12T05:55:02.383Z,15
2017-06-12T05:55:42.840Z,15
2017-06-12T05:56:23.301Z,15
2017-06-12T05:57:03.758Z,15
2017-06-12T05:57:44.213Z,15
2017-06-12T05:58:24.667Z,20
2017-06-12T05:59:05.124Z,15
2017-06-12T05:59:45.580Z,15
2017-06-12T06:00:26.042Z,20
2017-06-12T06:01:06.499Z,20
2017-06-12T06:01:46.963Z,25
2017-06-12T06:02:27.421Z,30
2017-06-12T06:03:07.884Z,30
2017-06-12T06:03:48.338Z,30
2017-06-12T06:04:28.797Z,30
2017-06-12T06:05:09.263Z,30
2017-06-12T06:05:49.717Z,30
2017-06-12T06:06:30.183Z,30
2017-06-12T06:07:10.641Z,30
2017-06-12T06:07:51.098Z,30
2017-06-12T06:08:31.558Z,30
2017-06-12T06:09:12.020Z,30
2017-06-12T06:09:52.497Z,30
2017-06-12T06:10:32.930Z,30
2017-06-12T06:11:13.386Z,30
2017-06-12T06:11:53.843Z,30
2017-06-12T06:12:34.299Z,30
2017-06-12T06:13:14.750Z,30
2017-06-12T06:13:55.240Z,30
2017-06-12T06:14:35.684Z,35
2017-06-12T06:15:16.143Z,30
2017-06-12T06:15:56.614Z,35
2017-06-12T06:16:37.059Z,35
2017-06-12T06:17:17.510Z,35
2017-06-12T06:17:57.969Z,35
2017-06-12T06:18:38.426Z,35
2017-06-12T06:19:18.886Z,35
2017-06-12T06:19:59.340Z,35
2017-06-12T06:20:39.802Z,35
2017-06-12T06:21:20.259Z,35
2017-06-12T06:22:00.718Z,35
2017-06-12T06:22:41.177Z,35
2017-06-12T06:23:21.635Z,35
2017-06-12T06:24:02.097Z,40
2017-06-12T06:24:42.551Z,40
2017-06-12T06:25:23.008Z,40
2017-06-12T06:26:03.465Z,45
2017-06-12T06:26:43.922Z,40
2017-06-12T06:27:24.392Z,40
2017-06-12T06:28:04.851Z,35
2017-06-12T06:28:45.311Z,25
2017-06-12T06:29:25.767Z,25
2017-06-12T06:30:06.224Z,20
2017-06-12T06:30:46.685Z,20
2017-06-12T06:31:27.137Z,20
2017-06-12T06:32:07.617Z,15
2017-06-12T06:32:48.056Z,15
2017-06-12T06:33:28.517Z,10
2017-06-12T06:34:08.975Z,10
2017-06-12T06:34:49.434Z,10
2017-06-12T06:35:29.894Z,5
2017-06-12T06:36:10.351Z,5
2017-06-12T06:36:50.803Z,5
2017-06-12T06:37:31.261Z,5
2017-06-12T06:38:11.716Z,5
2017-06-12T06:38:52.173Z,5
2017-06-12T06:39:32.636Z,5
2017-06-12T06:40:13.086Z,5
2017-06-12T06:40:53.534Z,5
2017-06-12T06:41:34.012Z,5
2017-06-12T06:42:14.515Z,5
2017-06-12T06:42:54.975Z,10
2017-06-12T06:43:35.451Z,10
2017-06-12T06:44:15.927Z,10
2017-06-12T06:44:56.386Z,10
2017-06-12T06:45:36.846Z,10
2017-06-12T06:46:17.301Z,10
2017-06-12T06:46:57.756Z,10
2017-06-12T06:47:38.214Z,15
2017-06-12T06:48:18.669Z,15
2017-06-12T06:48:59.125Z,15
2017-06-12T06:49:39.592Z,15
2017-06-12T06:50:20.046Z,10
2017-06-12T06:51:00.506Z,10
2017-06-12T06:51:40.964Z,10
2017-06-12T06:52:21.421Z,10
2017-06-12T06:53:01.881Z,10
2017-06-12T06:53:42.336Z,10
2017-06-12T06:54:22.798Z,15
2017-06-12T06:55:03.254Z,15
2017-06-12T06:55:43.715Z,15
2017-06-12T06:56:24.175Z,15
2017-06-12T06:57:04.634Z,15
2017-06-12T06:57:45.091Z,15
2017-06-12T06:58:25.554Z,10
2017-06-12T06:59:06.003Z,10
2017-06-12T06:59:46.462Z,10
2017-06-12T07:00:26.917Z,10
2017-06-12T07:01:07.373Z,10
2017-06-12T07:01:47.829Z,10
2017-06-12T07:02:28.279Z,10
2017-06-12T07:03:08.737Z,15
2017-06-12T07:03:49.203Z,15
2017-06-12T07:04:29.688Z,15
2017-06-12T07:05:10.145Z,10
2017-06-12T07:05:50.594Z,10
2017-06-12T07:06:31.049Z,10
2017-06-12T07:07:11.505Z,10
2017-06-12T07:07:51.967Z,10
2017-06-12T07:08:32.431Z,10
2017-06-12T07:09:12.890Z,10
2017-06-12T07:09:53.350Z,10
2017-06-12T07:10:33.803Z,10
2017-06-12T07:11:14.270Z,10
2017-06-12T07:11:54.723Z,10
2017-06-12T07:12:35.183Z,10
2017-06-12T07:13:15.636Z,10
2017-06-12T07:13:56.101Z,5
2017-06-12T07:14:36.561Z,5
2017-06-12T07:15:17.017Z,5
2017-06-12T07:15:57.476Z,5
2017-06-12T07:16:37.935Z,5
2017-06-12T07:17:18.392Z,5
2017-06-12T07:17:58.849Z,5
2017-06-12T07:18:39.308Z,5
2017-06-12T07:19:19.770Z,5
2017-06-12T07:20:00.230Z,5
2017-06-12T07:20:40.684Z,5
2017-06-12T07:21:21.137Z,0
2017-06-12T07:22:01.596Z,0
2017-06-12T07:22:42.052Z,0
2017-06-12T07:23:22.503Z,0
2017-06-12T07:24:02.963Z,0
2017-06-12T07:24:43.417Z,5
2017-06-12T07:25:23.874Z,5
2017-06-12T07:26:04.345Z,5
2017-06-12T07:26:44.804Z,5
2017-06-12T07:27:25.261Z,10
2017-06-12T07:28:05.712Z,10
2017-06-12T07:28:46.170Z,10
2017-06-12T07:29:26.630Z,10
2017-06-12T07:30:07.089Z,10
2017-06-12T07:30:47.551Z,10
2017-06-12T07:31:28.003Z,10
2017-06-12T07:32:08.465Z,10
2017-06-12T07:32:48.925Z,5
2017-06-12T07:33:29.383Z,5
2017-06-12T07:34:09.842Z,10
2017-06-12T07:34:50.303Z,10
2017-06-12T07:35:30.757Z,10
2017-06-12T07:36:11.221Z,10
2017-06-12T07:36:51.686Z,10
2017-06-12T07:37:32.139Z,10
2017-06-12T07:38:12.617Z,15
2017-06-12T07:38:53.074Z,15
2017-06-12T07:39:33.531Z,15
2017-06-12T07:40:13.990Z,10
2017-06-12T07:40:54.448Z,10
2017-06-12T07:41:34.908Z,10
2017-06-12T07:42:15.378Z,10
2017-06-12T07:42:55.835Z,10
2017-06-12T07:43:36.287Z,15
2017-06-12T07:44:16.746Z,15
2017-06-12T07:44:57.203Z,15
2017-06-12T07:45:37.657Z,20
2017-06-12T07:46:18.122Z,20
2017-06-12T07:46:58.564Z,20
2017-06-12T07:47:39.020Z,20
2017-06-12T07:48:19.481Z,20
2017-06-12T07:48:59.937Z,20
2017-06-12T07:49:40.394Z,20
2017-06-12T07:50:20.852Z,20
2017-06-12T07:51:01.317Z,25
2017-06-12T07:51:41.767Z,25
2017-06-12T07:52:22.222Z,25
2017-06-12T07:53:02.680Z,25
2017-06-12T07:53:43.140Z,25
2017-06-12T07:54:23.594Z,20
2017-06-12T07:55:04.053Z,20
2017-06-12T07:55:44.509Z,25
2017-06-12T07:56:24.965Z,25
2017-06-12T07:57:05.421Z,25
2017-06-12T07:57:45.883Z,20
2017-06-12T07:58:26.344Z,20
2017-06-12T07:59:06.806Z,20
2017-06-12T07:59:47.280Z,20
2017-06-12T08:00:27.739Z,20
2017-06-12T08:01:08.197Z,20
2017-06-12T08:01:48.661Z,20
2017-06-12T08:02:29.119Z,20
2017-06-12T08:03:09.583Z,20
2017-06-12T08:03:50.066Z,20
2017-06-12T08:04:30.530Z,15
2017-06-12T08:05:10.991Z,20
2017-06-12T08:05:51.450Z,20
2017-06-12T08:06:31.917Z,20
2017-06-12T08:07:12.373Z,20
2017-06-12T08:07:52.829Z,25
2017-06-12T08:08:33.287Z,25
2017-06-12T08:09:13.742Z,25
2017-06-12T08:09:54.200Z,25
2017-06-12T08:10:34.644Z,25
2017-06-12T08:11:15.097Z,25
2017-06-12T08:11:55.560Z,25
2017-06-12T08:12:36.017Z,25
2017-06-12T08:13:16.475Z,25
2017-06-12T08:13:56.937Z,25
2017-06-12T08:14:37.396Z,30
2017-06-12T08:15:17.862Z,30
2017-06-12T08:15:58.322Z,30
2017-06-12T08:16:38.782Z,35
2017-06-12T08:17:19.240Z,35
2017-06-12T08:17:59.700Z,40
2017-06-12T08:18:40.158Z,45
2017-06-12T08:19:20.621Z,45
2017-06-12T08:20:01.077Z,50
2017-06-12T08:20:41.539Z,45
2017-06-12T08:21:21.997Z,50
2017-06-12T08:22:02.456Z,75
2017-06-12T08:22:42.914Z,65
2017-06-12T08:23:23.381Z,45
2017-06-12T08:24:03.841Z,45
2017-06-12T08:24:44.302Z,50
2017-06-12T08:25:24.767Z,45
2017-06-12T08:26:05.226Z,50
2017-06-12T08:26:45.698Z,50
2017-06-12T08:27:26.141Z,45
2017-06-12T08:28:06.601Z,50
2017-06-12T08:28:47.068Z,50
2017-06-12T08:29:27.527Z,50
2017-06-12T08:30:07.983Z,50
2017-06-12T08:30:48.453Z,50
2017-06-12T08:31:28.911Z,55
2017-06-12T08:34:07.174Z,60
2017-06-12T08:34:47.632Z,50
2017-06-12T08:35:28.083Z,45
2017-06-12T08:36:08.547Z,40
2017-06-12T08:36:49.000Z,35
2017-06-12T08:37:29.458Z,35
2017-06-12T08:38:09.914Z,35
2017-06-12T08:38:50.365Z,35
2017-06-12T08:39:30.824Z,40
2017-06-12T08:40:11.291Z,40
2017-06-12T08:40:51.747Z,45
2017-06-12T08:41:32.199Z,45
2017-06-12T08:42:12.662Z,40
2017-06-12T08:42:53.118Z,40
2017-06-12T08:43:33.577Z,35
2017-06-12T08:44:14.024Z,35
2017-06-12T08:44:54.479Z,60
2017-06-12T08:45:34.936Z,90
2017-06-12T08:46:15.379Z,90
2017-06-12T08:46:55.844Z,90
2017-06-12T08:47:36.306Z,90
2017-06-12T08:48:16.783Z,90
2017-06-12T08:48:57.223Z,95
2017-06-12T08:49:37.687Z,100
2017-06-12T08:50:18.143Z,100
2017-06-12T08:50:58.597Z,95
2017-06-12T08:51:39.056Z,95
2017-06-12T08:52:19.515Z,95
2017-06-12T08:52:59.970Z,100
2017-06-12T08:53:40.436Z,100
2017-06-12T08:54:20.891Z,100
2017-06-12T08:55:01.351Z,95
2017-06-12T08:55:41.804Z,100
2017-06-12T08:56:22.266Z,90
2017-06-12T08:57:02.721Z,50
2017-06-12T08:57:43.178Z,75
2017-06-12T08:58:23.636Z,90
2017-06-12T08:59:04.094Z,55
2017-06-12T08:59:44.554Z,105
2017-06-12T09:00:25.013Z,100
2017-06-12T09:01:05.468Z,100
2017-06-12T09:01:45.931Z,100
2017-06-12T09:02:26.389Z,75
2017-06-12T09:03:06.850Z,100
2017-06-12T09:03:47.313Z,100
2017-06-12T09:04:27.767Z,100
2017-06-12T09:05:08.219Z,105
2017-06-12T09:05:48.675Z,65
2017-06-12T09:06:29.136Z,55
2017-06-12T09:07:09.609Z,55
2017-06-12T09:07:50.075Z,115
2017-06-12T09:08:30.526Z,80
2017-06-12T09:09:10.980Z,45
2017-06-12T09:09:51.443Z,45
2017-06-12T09:10:31.894Z,40
2017-06-12T09:11:12.350Z,40
2017-06-12T09:11:52.805Z,45
2017-06-12T09:12:33.258Z,45
2017-06-12T09:13:13.727Z,55
2017-06-12T09:13:54.184Z,50
2017-06-12T09:14:34.635Z,45
2017-06-12T09:15:15.101Z,55
2017-06-12T09:15:55.575Z,110
2017-06-12T09:16:36.004Z,105
2017-06-12T09:17:16.464Z,45
2017-06-12T09:17:56.923Z,40
2017-06-12T09:18:37.384Z,75
2017-06-12T09:19:17.835Z,100
2017-06-12T09:19:58.283Z,100
2017-06-12T09:20:38.739Z,100
2017-06-12T09:21:19.202Z,105
2017-06-12T09:21:59.644Z,55
2017-06-12T09:22:40.103Z,105
2017-06-12T09:23:20.561Z,105
2017-06-12T09:24:01.016Z,35
2017-06-12T09:24:41.480Z,35
2017-06-12T09:25:21.938Z,35
2017-06-12T09:26:02.399Z,80
2017-06-12T09:26:42.855Z,105
2017-06-12T09:27:23.313Z,105
2017-06-12T09:28:03.772Z,100
2017-06-12T09:28:44.234Z,105
2017-06-12T09:29:24.698Z,105
2017-06-12T09:30:05.159Z,95
2017-06-12T09:30:45.618Z,110
2017-06-12T09:31:26.075Z,110
2017-06-12T09:32:06.533Z,105
2017-06-12T09:32:46.993Z,100
2017-06-12T09:33:27.449Z,105
2017-06-12T09:34:07.903Z,110
2017-06-12T09:34:48.363Z,100
2017-06-12T09:35:28.818Z,95
2017-06-12T09:36:09.280Z,100
2017-06-12T09:36:49.733Z,110
2017-06-12T09:37:30.192Z,110
2017-06-12T09:38:10.655Z,110
2017-06-12T09:38:51.112Z,40
2017-06-12T09:39:31.568Z,95
2017-06-12T09:40:12.020Z,100
2017-06-12T09:40:52.505Z,100
2017-06-12T09:41:32.939Z,95
2017-06-12T09:42:13.401Z,95
2017-06-12T09:42:53.859Z,95
2017-06-12T09:43:34.326Z,95
2017-06-12T09:44:14.787Z,100
2017-06-12T09:44:55.250Z,100
2017-06-12T09:45:35.703Z,90
2017-06-12T09:46:16.163Z,95
2017-06-12T09:46:56.621Z,100
2017-06-12T09:47:37.082Z,95
2017-06-12T09:48:17.541Z,95
2017-06-12T09:48:58.002Z,95
2017-06-12T09:49:38.458Z,95
2017-06-12T09:50:18.925Z,80
2017-06-12T09:50:59.373Z,95
2017-06-12T09:51:39.830Z,95
2017-06-12T09:52:20.300Z,95
2017-06-12T09:53:00.758Z,95
2017-06-12T09:53:41.213Z,95
2017-06-12T09:54:21.673Z,95
2017-06-12T09:55:02.135Z,90
2017-06-12T09:55:42.592Z,95